Time;durP1;ratioP1;P1;durP2;ratioP2;P2;SDS_P1;SDS_P2;PMS_P1;PMS_P2;Temp;Humidity;BMP_temperature;BMP_pressure;BME280_temperature;BME280_humidity;BME280_pressure;Samples;Min_cycle;Max_cycle;Signal;HPM_P1;HPM_P2
2021/11/16 00:01:21;;;;;;;2.45;1.30;;;;;;;-0.24;69.34;102916.91;1950894;73;20999;-62
2021/11/16 00:03:47;;;;;;;3.80;2.02;;;;;;;-0.26;69.49;102917.27;1950441;73;21191;-62
2021/11/16 00:06:16;;;;;;;1.70;1.02;;;;;;;-0.29;69.62;102915.45;1950841;73;21054;-62
2021/11/16 00:08:45;;;;;;;3.45;2.20;;;;;;;-0.31;69.68;102914.92;1951022;73;21031;-62
2021/11/16 00:11:13;;;;;;;3.30;2.00;;;;;;;-0.31;69.69;102912.33;1950880;73;21042;-63
2021/11/16 00:13:42;;;;;;;2.52;1.50;;;;;;;-0.35;69.76;102904.85;1950986;73;21027;-62
2021/11/16 00:16:10;;;;;;;2.72;1.72;;;;;;;-0.38;69.87;102894.36;1950743;73;21094;-63
2021/11/16 00:18:39;;;;;;;2.58;2.02;;;;;;;-0.40;69.96;102912.41;1951084;73;21108;-63
2021/11/16 00:21:11;;;;;;;2.08;1.27;;;;;;;-0.44;70.07;102907.94;1951006;73;21429;-62
2021/11/16 00:23:40;;;;;;;2.95;1.30;;;;;;;-0.46;70.15;102910.88;1950974;73;21035;-62
2021/11/16 00:26:12;;;;;;;1.87;1.32;;;;;;;-0.48;70.13;102912.91;1950909;73;21096;-62
2021/11/16 00:28:41;;;;;;;0.75;0.72;;;;;;;-0.51;70.26;102913.68;1948733;73;21578;-62
2021/11/16 00:31:10;;;;;;;2.20;1.32;;;;;;;-0.53;70.38;102917.91;1942019;74;21074;-62
2021/11/16 00:33:39;;;;;;;2.50;1.70;;;;;;;-0.56;70.49;102916.48;1942181;74;21035;-63
2021/11/16 00:36:08;;;;;;;2.77;1.40;;;;;;;-0.57;70.53;102921.20;1942155;74;21109;-63
2021/11/16 00:38:40;;;;;;;1.75;1.00;;;;;;;-0.59;70.61;102926.30;1942170;74;21031;-63
2021/11/16 00:41:09;;;;;;;2.87;1.47;;;;;;;-0.60;70.75;102918.47;1942041;74;21023;-65
2021/11/16 00:43:37;;;;;;;3.00;1.25;;;;;;;-0.63;70.79;102910.57;1942082;74;21457;-63
2021/11/16 00:46:06;;;;;;;3.22;2.08;;;;;;;-0.64;70.88;102912.70;1942249;74;21100;-62
2021/11/16 00:48:35;;;;;;;2.95;1.45;;;;;;;-0.67;70.91;102909.55;1942116;74;21039;-62
2021/11/16 00:51:06;;;;;;;5.72;1.65;;;;;;;-0.69;71.04;102912.91;1942129;74;21043;-63
2021/11/16 00:53:38;;;;;;;5.05;2.00;;;;;;;-0.71;71.12;102911.97;1942056;74;21108;-63
2021/11/16 00:56:09;;;;;;;2.10;1.35;;;;;;;-0.72;71.21;102911.48;1942371;74;21038;-62
2021/11/16 00:58:38;;;;;;;5.30;1.45;;;;;;;-0.73;71.42;102904.13;1942126;74;21027;-63
2021/11/16 01:01:08;;;;;;;4.08;2.22;;;;;;;-0.75;71.50;102912.66;1942085;74;21051;-63
2021/11/16 01:03:37;;;;;;;4.47;2.37;;;;;;;-0.78;71.54;102903.92;1942100;74;21543;-63
2021/11/16 01:06:05;;;;;;;3.58;2.27;;;;;;;-0.82;71.53;102898.16;1942222;74;21031;-63
2021/11/16 01:08:35;;;;;;;2.75;1.52;;;;;;;-0.82;71.82;102912.38;1942101;74;21031;-63
2021/11/16 01:11:04;;;;;;;1.40;1.15;;;;;;;-0.84;71.79;102893.33;1942236;74;21007;-63
2021/11/16 01:13:35;;;;;;;3.02;1.80;;;;;;;-0.89;71.81;102900.00;1942129;74;21101;-63
2021/11/16 01:16:05;;;;;;;5.03;3.25;;;;;;;-0.91;72.01;102901.64;1942223;74;21055;-63
2021/11/16 01:18:33;;;;;;;5.67;3.27;;;;;;;-0.93;72.05;102898.11;1942147;74;21126;-63
2021/11/16 01:21:02;;;;;;;5.28;2.20;;;;;;;-0.92;72.13;102910.23;1942052;74;21039;-63
2021/11/16 01:23:31;;;;;;;3.85;1.80;;;;;;;-0.94;72.17;102909.29;1942136;74;20991;-63
2021/11/16 01:26:01;;;;;;;3.40;1.30;;;;;;;-0.96;72.18;102910.89;1942133;74;21043;-63
2021/11/16 01:28:31;;;;;;;4.87;2.17;;;;;;;-0.96;72.27;102912.19;1942090;74;21027;-63
2021/11/16 01:31:03;;;;;;;1.75;1.37;;;;;;;-0.98;72.32;102912.53;1958255;73;21152;-63
2021/11/16 01:33:41;;;;;;;3.27;1.50;;;;;;;-1.02;72.33;102910.22;1929019;74;21061;-63
2021/11/16 01:36:12;;;;;;;2.42;1.95;;;;;;;-1.05;72.40;102916.58;1929247;74;20986;-62
2021/11/16 01:38:43;;;;;;;2.37;1.82;;;;;;;-1.05;72.57;102918.25;1929111;74;21504;-63
2021/11/16 01:41:12;;;;;;;1.50;1.30;;;;;;;-1.07;72.61;102913.43;1942110;74;21074;-63
2021/11/16 01:43:41;;;;;;;4.95;1.82;;;;;;;-1.08;72.76;102908.67;1928962;74;21057;-63
2021/11/16 01:46:13;;;;;;;2.20;1.35;;;;;;;-1.10;72.74;102906.85;1942089;74;21474;-63
2021/11/16 01:48:48;;;;;;;2.22;1.42;;;;;;;-1.12;72.85;102911.08;1929150;74;21492;-63
2021/11/16 01:51:20;;;;;;;5.62;2.08;;;;;;;-1.14;73.08;102906.22;1929124;74;21096;-63
2021/11/16 01:53:50;;;;;;;5.12;1.70;;;;;;;-1.18;72.98;102921.62;1942068;74;21035;-63
2021/11/16 01:56:20;;;;;;;2.30;1.30;;;;;;;-1.17;73.33;102916.91;1928997;74;21014;-64
2021/11/16 01:58:49;;;;;;;4.65;2.98;;;;;;;-1.19;73.20;102920.25;1942104;74;21460;-63
2021/11/16 02:01:18;;;;;;;2.17;1.45;;;;;;;-1.21;73.26;102913.71;1929093;74;21493;-63
2021/11/16 02:03:47;;;;;;;8.55;2.27;;;;;;;-1.23;73.37;102919.23;1942061;74;21112;-63
2021/11/16 02:06:24;;;;;;;4.65;1.77;;;;;;;-1.25;73.38;102926.03;1929098;74;21484;-63
2021/11/16 02:08:55;;;;;;;3.22;2.00;;;;;;;-1.27;73.49;102926.38;1929140;74;21991;-63
2021/11/16 02:11:25;;;;;;;4.20;2.42;;;;;;;-1.27;73.56;102930.25;1929056;74;21522;-62
2021/11/16 02:13:55;;;;;;;2.12;1.27;;;;;;;-1.28;73.66;102938.81;1942023;74;21008;-62
2021/11/16 02:16:26;;;;;;;3.70;2.22;;;;;;;-1.30;73.70;102935.27;1929100;74;21460;-62
2021/11/16 02:19:16;;;;;;;2.62;1.60;;;;;;;-1.32;73.70;102942.08;1926454;74;21603;-62
2021/11/16 02:21:45;;;;;;;3.25;1.50;;;;;;;-1.32;73.73;102954.12;1904025;75;21485;-62
2021/11/16 02:24:16;;;;;;;7.28;3.05;;;;;;;-1.33;73.81;102948.05;1904071;75;21526;-63
2021/11/16 02:26:45;;;;;;;4.62;3.33;;;;;;;-1.36;73.86;102940.17;1904184;75;21005;-63
2021/11/16 02:29:13;;;;;;;3.67;2.70;;;;;;;-1.38;73.90;102955.61;1904219;75;20997;-63
2021/11/16 02:31:44;;;;;;;3.35;2.35;;;;;;;-1.38;74.06;102940.10;1904009;75;21020;-63
2021/11/16 02:34:13;;;;;;;2.92;2.12;;;;;;;-1.39;74.23;102945.20;1926626;74;21108;-63
2021/11/16 02:36:42;;;;;;;7.08;1.47;;;;;;;-1.39;74.23;102937.44;1904044;75;21061;-63
2021/11/16 02:39:12;;;;;;;2.72;1.75;;;;;;;-1.42;74.24;102950.22;1904153;75;21043;-63
2021/11/16 02:41:43;;;;;;;3.30;1.60;;;;;;;-1.41;74.40;102952.00;1926594;74;21034;-63
2021/11/16 02:44:14;;;;;;;1.92;1.20;;;;;;;-1.44;74.40;102952.75;1938136;74;21484;-63
2021/11/16 02:46:42;;;;;;;5.83;1.30;;;;;;;-1.46;74.43;102950.89;1938338;74;21062;-63
2021/11/16 02:49:11;;;;;;;3.90;1.90;;;;;;;-1.48;74.58;102948.66;1938223;74;21417;-63
2021/11/16 02:51:40;;;;;;;2.58;1.60;;;;;;;-1.49;74.57;102943.02;1938254;74;21140;-63
2021/11/16 02:54:20;;;;;;;5.20;1.55;;;;;;;-1.53;74.67;102944.58;1938254;74;21077;-63
2021/11/16 02:56:50;;;;;;;3.22;1.07;;;;;;;-1.56;74.74;102944.43;1938135;74;21046;-62
2021/11/16 02:59:19;;;;;;;2.62;1.20;;;;;;;-1.58;74.69;102949.52;1938220;74;21077;-62
2021/11/16 03:01:48;;;;;;;3.17;1.55;;;;;;;-1.60;74.87;102940.81;1938231;74;21464;-62
2021/11/16 03:04:24;;;;;;;1.72;1.55;;;;;;;-1.61;75.02;102942.91;1938250;74;21006;-62
2021/11/16 03:06:52;;;;;;;1.55;0.85;;;;;;;-1.61;75.39;102940.33;1938334;74;21116;-63
2021/11/16 03:09:21;;;;;;;1.27;0.98;;;;;;;-1.62;75.17;102941.16;1938186;74;21562;-63
2021/11/16 03:11:50;;;;;;;4.10;2.00;;;;;;;-1.62;75.10;102954.08;1938322;74;21062;-62
2021/11/16 03:14:19;;;;;;;1.47;1.22;;;;;;;-1.64;75.09;102942.79;1938478;74;21095;-63
2021/11/16 03:16:48;;;;;;;2.70;1.10;;;;;;;-1.65;75.11;102943.59;1938340;74;21033;-62
2021/11/16 03:19:17;;;;;;;3.10;1.42;;;;;;;-1.65;75.04;102941.42;1930019;74;21525;-62
2021/11/16 03:21:55;;;;;;;1.98;1.45;;;;;;;-1.67;75.15;102940.47;1884949;76;21092;-62
2021/11/16 03:24:16;;;;;;;2.52;1.45;;;;;;;-1.66;75.13;102939.25;1903803;75;21033;-62
2021/11/16 03:26:45;;;;;;;3.45;1.22;;;;;;;-1.68;75.17;102933.09;1904021;75;21123;-62
2021/11/16 03:29:16;;;;;;;2.42;1.50;;;;;;;-1.68;75.13;102940.85;1904124;75;21061;-62
2021/11/16 03:32:01;;;;;;;2.30;1.30;;;;;;;-1.68;75.37;102929.22;1904007;75;21037;-62
2021/11/16 03:34:14;;;;;;;3.05;1.47;;;;;;;-1.69;75.34;102931.34;1870032;77;21207;-63
2021/11/16 03:36:43;;;;;;;2.90;1.50;;;;;;;-1.70;75.36;102928.27;1885011;76;20995;-62
2021/11/16 03:39:12;;;;;;;1.67;0.75;;;;;;;-1.70;75.43;102929.98;1885068;76;21444;-62
2021/11/16 03:41:41;;;;;;;2.90;1.80;;;;;;;-1.70;75.39;102930.86;1885011;76;21554;-62
2021/11/16 03:44:10;;;;;;;2.80;1.22;;;;;;;-1.70;75.39;102933.44;1885215;76;21038;-62
2021/11/16 03:46:39;;;;;;;1.20;0.90;;;;;;;-1.67;75.46;102941.34;1884889;76;21476;-63
2021/11/16 03:49:10;;;;;;;3.98;1.77;;;;;;;-1.65;75.60;102934.55;1884995;76;21037;-62
2021/11/16 03:51:40;;;;;;;5.53;1.70;;;;;;;-1.62;75.81;102937.70;1903931;75;21061;-62
2021/11/16 03:54:09;;;;;;;3.80;2.45;;;;;;;-1.60;75.75;102935.65;1903926;75;21099;-62
2021/11/16 03:56:38;;;;;;;3.27;1.80;;;;;;;-1.56;75.68;102935.39;1903978;75;21519;-62
2021/11/16 03:59:07;;;;;;;1.40;0.95;;;;;;;-1.52;75.62;102937.70;1903869;75;21480;-63
2021/11/16 04:01:36;;;;;;;2.50;1.50;;;;;;;-1.50;75.54;102946.41;1903957;75;21456;-62
2021/11/16 04:04:06;;;;;;;3.17;1.62;;;;;;;-1.44;75.68;102946.68;1904147;75;21123;-62
2021/11/16 04:06:35;;;;;;;1.67;1.57;;;;;;;-1.40;75.72;102946.91;1904125;75;21102;-62
2021/11/16 04:09:04;;;;;;;3.47;1.95;;;;;;;-1.36;75.63;102950.52;1904212;75;21100;-62
2021/11/16 04:11:33;;;;;;;2.22;1.37;;;;;;;-1.35;75.55;102953.56;1903998;75;21057;-63
2021/11/16 04:14:02;;;;;;;3.60;1.80;;;;;;;-1.36;75.40;102947.93;1904086;75;21025;-62
2021/11/16 04:16:31;;;;;;;1.10;0.90;;;;;;;-1.35;75.46;102950.97;1904189;75;21057;-62
2021/11/16 04:18:59;;;;;;;2.08;1.35;;;;;;;-1.36;75.39;102952.69;1902742;74;21073;-62
2021/11/16 04:21:29;;;;;;;2.80;1.65;;;;;;;-1.37;75.46;102935.81;1900539;75;21014;-62
2021/11/16 04:23:57;;;;;;;3.08;1.82;;;;;;;-1.40;75.48;102935.70;1900509;75;21029;-62
2021/11/16 04:26:27;;;;;;;0.80;0.80;;;;;;;-1.43;75.53;102944.17;1900597;75;21467;-63
2021/11/16 04:28:56;;;;;;;3.75;1.37;;;;;;;-1.45;75.61;102948.39;1900504;75;21518;-62
2021/11/16 04:31:24;;;;;;;3.00;2.15;;;;;;;-1.43;75.69;102952.34;1900662;75;21088;-62
2021/11/16 04:33:56;;;;;;;3.33;2.08;;;;;;;-1.43;75.67;102949.34;1900594;75;21484;-62
2021/11/16 04:36:27;;;;;;;6.20;2.83;;;;;;;-1.41;75.68;102955.45;1899846;75;21049;-63
2021/11/16 04:38:55;;;;;;;3.42;2.02;;;;;;;-1.38;75.57;102958.61;1900497;75;21161;-63
2021/11/16 04:41:23;;;;;;;1.95;1.62;;;;;;;-1.35;75.55;102957.44;1874484;76;21038;-63
2021/11/16 04:43:54;;;;;;;3.45;1.67;;;;;;;-1.35;75.44;102958.73;1893656;76;21045;-63
2021/11/16 04:46:24;;;;;;;3.42;2.05;;;;;;;-1.36;75.46;102955.27;1893664;76;21061;-63
2021/11/16 04:48:59;;;;;;;4.78;2.60;;;;;;;-1.34;75.31;102952.76;1893769;76;21021;-62
2021/11/16 04:54:21;;;;;;;3.65;1.57;;;;;;;-1.33;75.30;102958.39;1900588;75;21131;-62
2021/11/16 05:04:55;;;;;;;3.20;1.90;;;;;;;-1.30;75.16;102961.13;1874589;76;21081;-63
2021/11/16 05:07:28;;;;;;;8.83;4.25;;;;;;;-1.29;75.11;102957.73;1893653;76;21022;-63
2021/11/16 05:09:59;;;;;;;5.85;2.95;;;;;;;-1.24;75.08;102963.09;1893617;76;21037;-64
2021/11/16 05:12:32;;;;;;;3.83;2.85;;;;;;;-1.19;75.01;102957.73;1893665;76;21163;-63
2021/11/16 05:15:03;;;;;;;5.30;2.27;;;;;;;-1.11;74.87;102961.95;1893717;76;21052;-63
2021/11/16 05:17:32;;;;;;;6.10;2.02;;;;;;;-1.05;74.79;102969.97;1900258;75;21143;-63
2021/11/16 05:20:01;;;;;;;5.20;2.45;;;;;;;-1.00;74.58;102962.02;1900536;74;21113;-63
2021/11/16 05:22:29;;;;;;;2.72;1.90;;;;;;;-1.00;74.42;102960.72;1874494;76;21053;-65
2021/11/16 05:24:58;;;;;;;4.42;2.35;;;;;;;-1.01;74.38;102971.90;1893607;76;21113;-62
2021/11/16 05:27:27;;;;;;;4.08;2.50;;;;;;;-0.90;74.50;102974.97;1893658;76;21468;-63
2021/11/16 05:29:56;;;;;;;2.92;1.10;;;;;;;-0.79;74.28;102973.73;1893628;76;21180;-63
2021/11/16 05:32:25;;;;;;;4.62;2.27;;;;;;;-0.73;74.04;102974.41;1893674;76;21033;-63
2021/11/16 05:34:54;;;;;;;3.70;1.40;;;;;;;-0.72;73.81;102977.06;1893615;76;20985;-62
2021/11/16 05:37:22;;;;;;;3.87;2.50;;;;;;;-0.70;73.64;102971.93;1893523;76;21051;-62
2021/11/16 05:39:51;;;;;;;4.30;2.67;;;;;;;-0.63;73.56;102968.41;1893792;76;21017;-62
2021/11/16 05:42:21;;;;;;;3.40;2.42;;;;;;;-0.53;73.35;102974.84;1893652;76;21523;-63
2021/11/16 05:44:51;;;;;;;6.00;4.15;;;;;;;-0.45;73.08;102972.16;1893693;76;21053;-62
2021/11/16 05:47:21;;;;;;;4.65;2.10;;;;;;;-0.26;72.79;102976.81;1893647;76;21523;-63
2021/11/16 05:49:50;;;;;;;4.45;3.37;;;;;;;0.35;71.93;102974.11;1893520;76;21143;-63
2021/11/16 05:52:19;;;;;;;5.20;3.27;;;;;;;0.97;70.22;102963.44;1893635;76;21103;-63
2021/11/16 05:54:48;;;;;;;9.95;3.80;;;;;;;1.38;69.11;102963.14;1893648;76;21017;-62
2021/11/16 05:57:17;;;;;;;4.17;3.55;;;;;;;1.87;67.52;102973.47;1893630;76;21457;-63
2021/11/16 05:59:45;;;;;;;7.20;3.60;;;;;;;1.79;66.76;102964.55;1893730;76;21017;-62
2021/11/16 06:02:14;;;;;;;4.60;2.47;;;;;;;1.92;66.52;102969.31;1893696;76;21455;-63
2021/11/16 06:04:44;;;;;;;2.45;1.90;;;;;;;2.36;66.10;102962.85;1893660;76;21525;-62
2021/11/16 06:07:13;;;;;;;8.30;5.03;;;;;;;2.70;65.11;102954.35;1893612;76;21509;-62
2021/11/16 06:09:45;;;;;;;7.50;3.05;;;;;;;2.85;64.35;102952.18;1893660;76;20985;-62
2021/11/16 06:12:14;;;;;;;9.15;3.33;;;;;;;2.86;62.98;102942.67;1893680;76;21013;-62
2021/11/16 06:14:43;;;;;;;8.00;5.00;;;;;;;2.37;63.76;102941.23;1893561;76;20986;-62
2021/11/16 06:17:12;;;;;;;4.37;2.92;;;;;;;1.95;64.42;102954.65;1893629;76;21033;-62
2021/11/16 06:19:42;;;;;;;6.60;2.80;;;;;;;1.67;65.13;102954.63;1892693;76;21480;-62
2021/11/16 06:22:11;;;;;;;8.55;4.42;;;;;;;1.50;65.63;102944.97;1884939;76;21601;-63
2021/11/16 06:24:40;;;;;;;7.40;3.37;;;;;;;1.28;65.85;102942.48;1884997;76;21468;-62
2021/11/16 06:27:09;;;;;;;11.22;4.60;;;;;;;0.99;66.29;102941.03;1884914;76;21456;-62
2021/11/16 06:29:37;;;;;;;5.97;3.30;;;;;;;0.82;66.89;102948.20;1884905;76;21449;-63
2021/11/16 06:32:07;;;;;;;12.23;4.05;;;;;;;0.76;67.20;102955.34;1884969;76;21127;-62
2021/11/16 06:34:36;;;;;;;7.47;2.75;;;;;;;0.65;67.35;102948.01;1885084;76;21018;-63
2021/11/16 06:37:06;;;;;;;8.40;3.45;;;;;;;0.67;67.80;102951.12;1884959;76;20993;-63
2021/11/16 06:39:35;;;;;;;7.53;3.85;;;;;;;0.75;67.78;102946.20;1884964;76;21514;-63
2021/11/16 06:42:04;;;;;;;12.60;3.95;;;;;;;0.71;67.73;102952.99;1884920;76;21084;-63
2021/11/16 06:44:33;;;;;;;5.42;2.90;;;;;;;0.71;67.80;102949.10;1884916;76;20994;-63
2021/11/16 06:47:02;;;;;;;5.75;3.20;;;;;;;0.73;67.93;102952.63;1884946;76;21112;-62
2021/11/16 06:49:32;;;;;;;8.10;2.70;;;;;;;0.78;67.84;102945.45;1884948;76;21417;-63
2021/11/16 06:52:01;;;;;;;3.42;2.25;;;;;;;0.82;67.91;102943.44;1884944;76;21159;-63
2021/11/16 06:54:29;;;;;;;6.97;3.77;;;;;;;1.21;67.54;102948.28;1884923;76;21453;-62
2021/11/16 06:57:00;;;;;;;8.88;4.15;;;;;;;1.37;67.18;102936.31;1884897;76;21115;-62
2021/11/16 06:59:29;;;;;;;12.98;3.80;;;;;;;1.74;66.81;102942.73;1884425;76;21116;-62
2021/11/16 07:01:58;;;;;;;6.22;3.05;;;;;;;2.31;65.31;102934.13;1884939;76;21476;-62
2021/11/16 07:04:39;;;;;;;6.58;3.12;;;;;;;3.23;63.22;102929.36;1884948;76;21460;-62
2021/11/16 07:07:08;;;;;;;9.80;3.10;;;;;;;4.02;61.21;102925.24;1884931;76;21511;-62
2021/11/16 07:09:40;;;;;;;10.43;5.80;;;;;;;5.10;59.33;102927.91;1884960;76;21025;-62
2021/11/16 07:12:25;;;;;;;7.72;3.85;;;;;;;6.06;57.62;102927.36;1884488;76;21107;-60
2021/11/16 07:14:54;;;;;;;4.78;2.70;;;;;;;6.42;55.00;102906.92;1884340;76;21112;-59
2021/11/16 07:17:23;;;;;;;10.72;3.92;;;;;;;7.38;54.25;102916.70;1884889;76;21194;-61
2021/11/16 07:19:56;;;;;;;6.55;3.77;;;;;;;8.09;52.69;102903.70;1884941;76;21127;-60
2021/11/16 07:22:30;;;;;;;6.95;3.42;;;;;;;8.62;50.94;102914.06;1876809;76;21050;-61
2021/11/16 07:25:04;;;;;;;8.58;3.85;;;;;;;8.89;49.81;102915.91;1903921;75;21073;-62
2021/11/16 07:27:41;;;;;;;6.45;4.60;;;;;;;9.08;47.95;102918.14;1872033;77;21072;-58
2021/11/16 07:30:13;;;;;;;10.10;4.67;;;;;;;8.85;47.15;102917.66;1863245;77;21016;-58
2021/11/16 07:32:50;;;;;;;13.32;3.67;;;;;;;9.22;47.32;102916.42;1863206;77;21105;-60
2021/11/16 07:35:21;;;;;;;4.22;2.22;;;;;;;9.75;46.53;102919.05;1884090;76;21554;-58
2021/11/16 07:37:51;;;;;;;7.15;2.62;;;;;;;9.45;44.38;102915.11;1895211;75;21094;-60
2021/11/16 07:40:21;;;;;;;3.00;2.10;;;;;;;9.12;43.08;102912.01;1873313;75;21603;-59
2021/11/16 07:43:04;;;;;;;3.12;1.95;;;;;;;9.05;44.05;102923.38;1822702;78;21404;-59
2021/11/16 07:45:48;;;;;;;5.75;2.10;;;;;;;8.87;44.32;102928.14;1888061;76;21417;-60
2021/11/16 07:48:19;;;;;;;3.05;1.95;;;;;;;8.37;44.22;102923.09;1814877;79;21055;-59
2021/11/16 07:50:54;;;;;;;2.92;2.55;;;;;;;8.81;43.98;102926.38;1814599;79;21110;-59
2021/11/16 07:53:31;;;;;;;5.92;2.58;;;;;;;9.39;43.18;102930.03;1802242;78;21046;-59
2021/11/16 07:56:09;;;;;;;8.45;2.98;;;;;;;9.69;43.01;102933.54;1837046;78;21078;-61
2021/11/16 07:58:41;;;;;;;4.72;2.35;;;;;;;10.30;43.09;102936.52;1887944;76;21080;-59
2021/11/16 08:02:23;;;;;;;4.12;2.15;;;;;;;10.38;40.86;102927.75;1884715;76;21017;-60
2021/11/16 08:04:04;;;;;;;8.13;2.33;;;;;;;10.44;40.73;102925.54;1854807;76;20983;-60
2021/11/16 08:06:40;;;;;;;2.12;1.92;;;;;;;10.49;40.21;102922.42;1880156;76;21059;-60
2021/11/16 08:09:23;;;;;;;6.00;2.83;;;;;;;10.51;39.92;102911.88;1787582;79;21547;-61
2021/11/16 08:11:53;;;;;;;3.67;1.98;;;;;;;10.84;39.52;102919.20;1813387;79;21163;-60
2021/11/16 08:14:18;;;;;;;3.27;2.50;;;;;;;10.99;39.41;102908.56;1845847;78;21117;-60
2021/11/16 08:16:57;;;;;;;4.70;1.47;;;;;;;11.20;38.74;102905.80;1838985;78;21526;-60
2021/11/16 08:19:34;;;;;;;4.67;1.42;;;;;;;11.53;38.56;102901.15;1833389;78;21066;-60
2021/11/16 08:22:10;;;;;;;5.53;2.77;;;;;;;11.71;38.20;102904.50;1895262;75;21220;-61
2021/11/16 08:24:59;;;;;;;5.70;2.75;;;;;;;11.99;37.82;102906.48;1904088;75;21137;-60
2021/11/16 08:27:31;;;;;;;5.35;2.95;;;;;;;12.17;35.95;102909.34;1876082;76;21539;-57
2021/11/16 08:30:02;;;;;;;2.70;2.17;;;;;;;11.82;36.05;102892.07;1906629;75;21046;-58
2021/11/16 08:32:38;;;;;;;2.62;1.60;;;;;;;11.55;35.65;102892.77;1933596;74;21002;-58
2021/11/16 08:35:18;;;;;;;6.85;2.95;;;;;;;11.56;36.37;102885.30;1933653;74;21460;-58
2021/11/16 08:37:49;;;;;;;3.80;1.75;;;;;;;11.90;36.07;102881.50;1933783;74;21433;-58
2021/11/16 08:40:23;;;;;;;7.90;2.22;;;;;;;11.96;35.97;102890.20;1933045;74;21089;-60
2021/11/16 08:43:06;;;;;;;4.37;1.70;;;;;;;12.27;35.34;102891.65;1933512;74;21433;-61
2021/11/16 08:45:37;;;;;;;2.67;1.42;;;;;;;12.34;35.80;102890.23;1932603;74;21119;-60
2021/11/16 08:48:09;;;;;;;2.62;1.40;;;;;;;12.64;35.23;102882.80;1900151;75;20997;-60
2021/11/16 08:50:50;;;;;;;5.05;1.95;;;;;;;12.78;34.20;102879.08;1912517;74;20990;-59
2021/11/16 08:53:34;;;;;;;4.22;1.70;;;;;;;12.85;34.42;102878.11;1900143;75;21072;-60
2021/11/16 08:56:06;;;;;;;;;;;;;;;12.79;34.08;102871.59;1910420;74;21018;-63
2021/11/16 08:58:35;;;;;;;3.67;1.82;;;;;;;13.07;33.66;102870.27;1933797;74;20371;-59
2021/11/16 09:01:07;;;;;;;6.00;2.27;;;;;;;13.11;33.18;102867.13;1926072;74;21037;-59
2021/11/16 09:03:45;;;;;;;4.35;1.52;;;;;;;12.80;33.79;102862.33;1900274;75;21069;-59
2021/11/16 09:06:22;;;;;;;6.08;2.20;;;;;;;13.00;34.22;102853.20;1910130;74;21084;-59
2021/11/16 09:09:09;;;;;;;3.60;1.85;;;;;;;12.90;33.83;102852.02;1933674;74;21081;-59
2021/11/16 09:11:37;;;;;;;4.85;1.92;;;;;;;12.85;34.48;102841.09;1918034;74;21025;-59
2021/11/16 09:14:16;;;;;;;4.17;1.70;;;;;;;12.65;33.88;102842.27;1900207;75;21533;-59
2021/11/16 09:16:45;;;;;;;2.77;1.55;;;;;;;12.31;34.19;102834.78;1900269;75;21013;-59
2021/11/16 09:19:28;;;;;;;7.00;2.67;;;;;;;12.31;34.14;102834.78;1900294;75;21510;-59
2021/11/16 09:21:59;;;;;;;3.35;1.80;;;;;;;12.44;34.61;102821.42;1900462;75;21463;-59
2021/11/16 09:24:33;;;;;;;4.45;2.00;;;;;;;12.58;33.76;102824.75;1900247;75;21009;-60
2021/11/16 09:29:39;;;;;;;5.45;2.40;;;;;;;12.25;34.05;102817.70;1896541;76;21156;-59
2021/11/16 09:32:14;;;;;;;4.35;1.95;;;;;;;12.10;33.76;102802.93;1896525;76;21100;-59
2021/11/16 09:34:46;;;;;;;2.10;1.45;;;;;;;12.19;33.33;102800.63;1896448;76;21046;-60
2021/11/16 09:37:18;;;;;;;2.98;1.75;;;;;;;12.09;32.94;102798.53;1896451;76;21054;-59
2021/11/16 09:39:59;;;;;;;6.03;1.45;;;;;;;12.25;33.69;102794.39;1895953;76;21093;-62
2021/11/16 09:42:31;;;;;;;6.87;1.80;;;;;;;12.47;34.00;102780.44;1922048;74;21043;-63
2021/11/16 09:45:05;;;;;;;3.83;1.50;;;;;;;12.53;32.88;102780.34;1929582;74;21518;-71
2021/11/16 09:47:42;;;;;;;4.72;2.22;;;;;;;12.35;32.99;102773.08;1901825;73;21117;-68
2021/11/16 09:50:16;;;;;;;5.10;1.62;;;;;;;12.18;32.07;102781.70;1908553;74;21039;-67
2021/11/16 09:52:51;;;;;;;1.50;1.00;;;;;;;11.97;33.05;102767.88;1898934;74;21018;-61
2021/11/16 09:55:22;;;;;;;2.52;1.22;;;;;;;12.09;32.82;102767.30;1896484;76;21054;-61
2021/11/16 09:57:57;;;;;;;5.97;1.85;;;;;;;12.10;32.95;102747.93;1928318;74;21038;-61
2021/11/16 10:00:28;;;;;;;4.20;1.40;;;;;;;12.08;32.33;102753.23;1929521;74;21486;-61
2021/11/16 10:03:10;;;;;;;1.80;1.22;;;;;;;12.20;32.51;102744.25;1896518;76;21061;-61
2021/11/16 10:05:42;;;;;;;6.35;2.37;;;;;;;12.55;31.94;102741.55;1898090;74;21112;-62
2021/11/16 10:08:12;;;;;;;4.50;1.40;;;;;;;12.75;32.24;102746.06;1928124;74;21066;-62
2021/11/16 10:10:43;;;;;;;9.68;3.10;;;;;;;12.86;31.66;102739.75;1927352;74;21112;-62
2021/11/16 10:13:17;;;;;;;3.40;1.62;;;;;;;13.09;31.67;102742.84;1896507;76;21504;-61
2021/11/16 10:15:49;;;;;;;2.40;1.22;;;;;;;12.93;31.04;102738.75;1899931;74;21135;-61
2021/11/16 10:18:20;;;;;;;7.80;1.37;;;;;;;12.44;31.38;102745.67;1929584;74;21030;-61
2021/11/16 10:20:51;;;;;;;3.02;1.30;;;;;;;12.27;31.27;102735.35;1929444;74;21015;-61
2021/11/16 10:23:32;;;;;;;1.20;1.10;;;;;;;12.22;31.73;102743.78;1929607;74;21027;-62
2021/11/16 10:26:01;;;;;;;1.60;1.32;;;;;;;12.45;31.73;102739.50;1929189;74;21433;-62
2021/11/16 10:28:32;;;;;;;3.35;2.00;;;;;;;12.54;31.55;102736.72;1929505;74;21486;-63
2021/11/16 10:31:02;;;;;;;5.17;1.42;;;;;;;12.71;30.63;102760.23;1929418;74;21051;-64
2021/11/16 10:33:42;;;;;;;2.92;1.10;;;;;;;12.42;30.88;102743.95;1929545;74;21027;-61
2021/11/16 10:36:14;;;;;;;2.33;1.45;;;;;;;12.40;31.16;102743.11;1928320;74;21519;-61
2021/11/16 10:38:48;;;;;;;3.27;1.40;;;;;;;12.52;31.19;102734.98;1929529;74;21094;-61
2021/11/16 10:41:20;;;;;;;2.30;1.40;;;;;;;12.51;31.00;102733.25;1929508;74;21038;-61
2021/11/16 10:44:07;;;;;;;2.35;1.57;;;;;;;12.59;31.16;102733.98;1929453;74;21054;-61
2021/11/16 10:46:39;;;;;;;3.42;1.50;;;;;;;12.56;31.43;102728.77;1929542;74;21038;-61
2021/11/16 10:49:14;;;;;;;3.72;1.75;;;;;;;12.53;31.30;102715.59;1929636;74;21132;-61
2021/11/16 10:51:45;;;;;;;5.92;2.22;;;;;;;12.40;31.54;102721.97;1929673;74;21204;-61
2021/11/16 10:54:16;;;;;;;1.47;1.22;;;;;;;12.34;31.10;102719.84;1929354;74;21199;-61
2021/11/16 10:56:46;;;;;;;2.72;1.47;;;;;;;12.21;31.42;102710.78;1929637;74;21011;-61
2021/11/16 10:59:20;;;;;;;5.12;2.20;;;;;;;12.21;31.10;102707.72;1929556;74;21466;-61
2021/11/16 11:01:49;;;;;;;;;;;;;;;12.18;31.23;102701.15;1932408;74;21054;-60
2021/11/16 11:04:23;;;;;;;5.87;1.50;;;;;;;11.99;30.55;102711.11;1929470;74;20148;-62
2021/11/16 11:06:53;;;;;;;4.55;1.67;;;;;;;11.40;32.39;102710.91;1929339;74;21112;-61
2021/11/16 11:09:23;;;;;;;3.40;1.55;;;;;;;11.24;32.71;102710.19;1929578;74;21030;-60
2021/11/16 11:11:55;;;;;;;3.60;1.62;;;;;;;11.44;32.11;102703.38;1929523;74;21531;-61
2021/11/16 11:14:35;;;;;;;6.17;3.00;;;;;;;11.48;32.10;102698.50;1929510;74;21074;-61
2021/11/16 11:17:12;;;;;;;10.05;3.72;;;;;;;11.70;32.41;102694.29;1929435;74;21108;-61
2021/11/16 11:19:43;;;;;;;9.78;4.08;;;;;;;11.78;32.59;102689.34;1929566;74;21100;-61
2021/11/16 11:22:19;;;;;;;9.23;4.10;;;;;;;11.77;32.68;102695.95;1929624;74;21018;-61
2021/11/16 11:27:33;;;;;;;6.78;2.87;;;;;;;11.21;33.54;102698.34;1929267;74;21070;-62
2021/11/16 11:30:03;;;;;;;7.72;2.55;;;;;;;11.10;33.75;102693.63;1929526;74;21066;-61
2021/11/16 11:32:34;;;;;;;11.65;3.17;;;;;;;10.85;34.14;102694.33;1929509;74;21074;-61
2021/11/16 11:35:12;;;;;;;5.55;2.42;;;;;;;10.77;34.51;102686.04;1929516;74;21532;-61
2021/11/16 11:37:46;;;;;;;8.45;2.45;;;;;;;10.60;34.60;102677.39;1929422;74;21011;-63
2021/11/16 11:40:18;;;;;;;3.98;2.33;;;;;;;10.50;34.91;102670.47;1929584;74;21175;-61
2021/11/16 11:43:00;;;;;;;5.22;2.35;;;;;;;10.26;35.08;102669.72;1929585;74;21055;-61
2021/11/16 11:45:34;;;;;;;7.00;2.35;;;;;;;10.02;35.02;102674.25;1927984;74;21132;-61
2021/11/16 11:48:19;;;;;;;12.05;4.30;;;;;;;9.83;35.45;102660.33;1929445;74;21062;-61
2021/11/16 11:53:41;;;;;;;14.23;4.50;;;;;;;9.53;36.10;102660.01;1828683;77;21053;-61
2021/11/16 11:56:13;;;;;;;5.35;2.85;;;;;;;9.34;36.62;102670.17;1817484;79;21590;-61
2021/11/16 11:58:44;;;;;;;6.35;2.92;;;;;;;9.10;37.04;102666.72;1817406;79;21105;-63
2021/11/16 12:01:16;;;;;;;5.28;3.27;;;;;;;8.40;38.40;102671.55;1817503;79;21133;-61
2021/11/16 12:03:47;;;;;;;8.95;3.85;;;;;;;7.77;39.64;102678.84;1817490;79;21532;-61
2021/11/16 12:06:16;;;;;;;13.88;4.47;;;;;;;7.35;40.58;102673.39;1817547;79;21141;-61